createdAt,value
2023-04-29T00:01:31.560Z,5.32
2023-04-29T00:03:58.830Z,7.80
2023-04-29T00:06:26.302Z,7.22
2023-04-29T00:08:53.576Z,7.50
2023-04-29T00:11:20.790Z,7.68
2023-04-29T00:13:47.879Z,9.70
2023-04-29T00:16:15.051Z,7.55
2023-04-29T00:18:42.210Z,8.20
2023-04-29T00:21:09.217Z,6.78
2023-04-29T00:23:36.465Z,7.45
2023-04-29T00:26:03.688Z,6.53
2023-04-29T00:28:30.794Z,6.07
2023-04-29T00:30:58.154Z,5.47
2023-04-29T00:33:25.575Z,5.63
2023-04-29T00:35:53.020Z,4.78
2023-04-29T00:38:21.466Z,5.57
2023-04-29T00:40:48.820Z,6.13
2023-04-29T00:43:15.915Z,6.85
2023-04-29T00:45:43.850Z,4.82
2023-04-29T00:48:10.798Z,5.82
2023-04-29T00:50:37.998Z,5.75
2023-04-29T00:53:05.208Z,5.60
2023-04-29T00:55:34.086Z,4.63
2023-04-29T00:58:02.990Z,5.75
2023-04-29T01:00:30.644Z,5.22
2023-04-29T01:02:59.897Z,4.85
2023-04-29T01:05:27.862Z,5.55
2023-04-29T01:08:07.036Z,5.50
2023-04-29T01:10:59.491Z,6.47
2023-04-29T01:13:44.697Z,6.13
2023-04-29T01:16:21.658Z,6.00
2023-04-29T01:18:56.535Z,4.90
2023-04-29T01:21:28.408Z,5.65
2023-04-29T01:23:58.373Z,7.28
2023-04-29T01:26:32.448Z,6.25
2023-04-29T01:29:28.052Z,7.03
2023-04-29T01:32:13.825Z,5.13
2023-04-29T01:34:59.899Z,6.03
2023-04-29T01:37:49.644Z,7.03
2023-04-29T01:40:22.728Z,6.47
2023-04-29T01:43:12.008Z,6.43
2023-04-29T01:45:44.381Z,5.78
2023-04-29T01:48:13.130Z,6.22
2023-04-29T01:50:40.892Z,4.47
2023-04-29T01:53:11.939Z,7.97
2023-04-29T01:55:39.675Z,6.07
2023-04-29T01:58:36.341Z,7.70
2023-04-29T02:01:32.900Z,6.85
2023-04-29T02:04:00.245Z,5.75
2023-04-29T02:06:28.156Z,5.00
2023-04-29T02:08:59.572Z,6.15
2023-04-29T02:11:26.875Z,6.25
2023-04-29T02:13:56.859Z,5.30
2023-04-29T02:16:24.335Z,6.28
2023-04-29T02:19:09.058Z,6.07
2023-04-29T02:21:40.283Z,6.75
2023-04-29T02:24:07.448Z,5.60
2023-04-29T02:26:34.630Z,6.28
2023-04-29T02:29:01.778Z,6.90
2023-04-29T02:31:29.425Z,7.93
2023-04-29T02:33:57.000Z,7.45
2023-04-29T02:36:24.885Z,6.13
2023-04-29T02:38:55.408Z,5.60
2023-04-29T02:41:23.249Z,6.55
2023-04-29T02:43:50.289Z,6.03
2023-04-29T02:46:17.859Z,6.63
2023-04-29T02:48:45.364Z,6.93
2023-04-29T02:51:13.535Z,7.53
2023-04-29T02:53:40.668Z,4.82
2023-04-29T02:56:07.992Z,6.05
2023-04-29T02:58:35.020Z,5.50
2023-04-29T03:01:02.687Z,5.32
2023-04-29T03:03:29.978Z,5.55
2023-04-29T03:05:57.499Z,5.60
2023-04-29T03:08:24.475Z,5.80
2023-04-29T03:10:51.532Z,4.45
2023-04-29T03:13:19.478Z,2.63
2023-04-29T03:15:46.954Z,3.80
2023-04-29T03:18:14.126Z,6.65
2023-04-29T03:20:41.221Z,4.20
2023-04-29T03:23:08.143Z,6.07
2023-04-29T03:25:35.485Z,6.72
2023-04-29T03:28:02.779Z,4.38
2023-04-29T03:30:31.334Z,6.80
2023-04-29T03:32:58.712Z,3.75
2023-04-29T03:35:27.765Z,6.32
2023-04-29T03:38:15.023Z,5.75
2023-04-29T03:40:43.238Z,4.13
2023-04-29T03:43:10.569Z,4.45
2023-04-29T03:45:37.606Z,5.35
2023-04-29T03:48:06.680Z,4.32
2023-04-29T03:50:34.049Z,4.85
2023-04-29T03:53:01.063Z,4.90
2023-04-29T03:55:28.901Z,5.10
2023-04-29T03:57:56.121Z,4.38
2023-04-29T04:00:24.173Z,3.88
2023-04-29T04:02:54.906Z,5.85
2023-04-29T04:05:25.216Z,4.03
2023-04-29T04:07:57.250Z,4.82
2023-04-29T04:10:36.975Z,5.85
2023-04-29T04:13:11.107Z,6.43
2023-04-29T04:15:38.122Z,5.78
2023-04-29T04:18:05.478Z,5.15
2023-04-29T04:20:32.715Z,4.72
2023-04-29T04:22:59.684Z,6.25
2023-04-29T04:25:30.954Z,5.25
2023-04-29T04:28:10.776Z,3.67
2023-04-29T04:30:56.590Z,5.05
2023-04-29T04:33:23.595Z,5.72
2023-04-29T04:35:50.649Z,4.47
2023-04-29T04:38:17.808Z,5.95
2023-04-29T04:40:44.808Z,6.88
2023-04-29T04:43:32.049Z,4.47
2023-04-29T04:45:59.492Z,7.43
2023-04-29T04:48:26.682Z,7.57
2023-04-29T04:50:54.551Z,5.45
2023-04-29T04:53:22.633Z,6.43
2023-04-29T04:56:03.034Z,6.20
2023-04-29T04:58:32.749Z,5.82
2023-04-29T05:01:01.205Z,7.93
2023-04-29T05:03:28.692Z,6.65
2023-04-29T05:06:00.614Z,6.97
2023-04-29T05:08:28.651Z,5.72
2023-04-29T05:10:58.755Z,6.88
2023-04-29T05:13:26.085Z,6.25
2023-04-29T05:15:53.489Z,7.32
2023-04-29T05:18:26.865Z,7.05
2023-04-29T05:20:53.837Z,5.10
2023-04-29T05:23:20.806Z,8.95
2023-04-29T05:25:48.095Z,7.20
2023-04-29T05:28:17.123Z,5.22
2023-04-29T05:30:45.086Z,9.23
2023-04-29T05:33:12.464Z,7.30
2023-04-29T05:35:40.060Z,7.15
2023-04-29T05:38:07.493Z,7.00
2023-04-29T05:40:40.952Z,10.53
2023-04-29T05:43:25.447Z,8.68
2023-04-29T05:45:53.296Z,8.10
2023-04-29T05:48:20.245Z,7.82
2023-04-29T05:50:48.662Z,7.60
2023-04-29T05:53:15.684Z,7.13
2023-04-29T05:55:45.240Z,8.32
2023-04-29T05:58:13.485Z,7.03
2023-04-29T06:00:41.007Z,6.70
2023-04-29T06:03:15.005Z,8.15
2023-04-29T06:05:42.666Z,8.38
2023-04-29T06:08:28.013Z,8.40
2023-04-29T06:11:03.501Z,8.13
2023-04-29T06:13:31.128Z,8.25
2023-04-29T06:15:58.248Z,7.60
2023-04-29T06:18:26.123Z,7.22
2023-04-29T06:20:53.184Z,8.68
2023-04-29T06:23:20.525Z,8.45
2023-04-29T06:25:49.391Z,7.65
2023-04-29T06:28:17.964Z,7.03
2023-04-29T06:30:45.978Z,8.68
2023-04-29T06:33:14.075Z,7.78
2023-04-29T06:35:41.913Z,6.53
2023-04-29T06:38:27.411Z,7.05
2023-04-29T06:41:02.044Z,8.18
2023-04-29T06:43:48.949Z,8.20
2023-04-29T06:46:46.116Z,9.02
2023-04-29T06:49:18.010Z,6.88
2023-04-29T06:51:45.108Z,8.20
2023-04-29T06:54:12.366Z,5.50
2023-04-29T06:56:39.372Z,7.88
2023-04-29T06:59:06.360Z,8.73
2023-04-29T07:01:36.344Z,8.38
2023-04-29T07:04:03.799Z,10.10
2023-04-29T07:06:30.931Z,8.15
2023-04-29T07:08:57.943Z,7.85
2023-04-29T07:11:24.977Z,8.23
2023-04-29T07:13:55.421Z,8.80
2023-04-29T07:16:22.869Z,7.57
2023-04-29T07:18:50.037Z,8.07
2023-04-29T07:21:17.206Z,9.70
2023-04-29T07:23:44.250Z,8.80
2023-04-29T07:26:12.593Z,8.15
2023-04-29T07:28:39.937Z,8.30
2023-04-29T07:31:07.938Z,8.00
2023-04-29T07:33:35.892Z,6.97
2023-04-29T07:36:04.411Z,9.05
2023-04-29T07:38:31.855Z,7.82
2023-04-29T07:40:58.743Z,9.05
2023-04-29T07:43:25.834Z,7.43
2023-04-29T07:45:53.106Z,7.72
2023-04-29T07:48:21.423Z,7.63
2023-04-29T07:50:48.440Z,8.27
2023-04-29T07:53:18.306Z,7.72
2023-04-29T07:55:45.299Z,8.68
2023-04-29T07:58:12.597Z,8.05
2023-04-29T08:00:39.826Z,7.38
2023-04-29T08:03:07.014Z,7.78
2023-04-29T08:05:34.501Z,9.60
2023-04-29T08:08:01.768Z,7.22
2023-04-29T08:10:29.470Z,8.43
2023-04-29T08:12:56.410Z,8.35
2023-04-29T08:15:23.630Z,8.13
2023-04-29T08:17:51.102Z,8.73
2023-04-29T08:20:18.349Z,8.38
2023-04-29T08:22:45.361Z,7.85
2023-04-29T08:25:12.471Z,7.72
2023-04-29T08:27:39.499Z,8.15
2023-04-29T08:30:07.377Z,7.50
2023-04-29T08:32:35.479Z,7.53
2023-04-29T08:35:03.320Z,7.40
2023-04-29T08:37:30.535Z,9.20
2023-04-29T08:39:57.673Z,7.43
2023-04-29T08:42:35.156Z,8.95
2023-04-29T08:45:03.320Z,6.75
2023-04-29T08:47:33.218Z,7.97
2023-04-29T08:50:05.427Z,7.50
2023-04-29T08:52:33.266Z,7.45
2023-04-29T08:55:02.707Z,7.65
2023-04-29T08:57:33.133Z,7.30
2023-04-29T09:00:01.549Z,9.55
2023-04-29T09:02:30.359Z,6.30
2023-04-29T09:05:08.589Z,6.45
2023-04-29T09:07:36.532Z,6.10
2023-04-29T09:10:05.155Z,7.90
2023-04-29T09:12:32.254Z,8.48
2023-04-29T09:15:00.007Z,6.82
2023-04-29T09:17:47.400Z,7.15
2023-04-29T09:20:20.449Z,5.85
2023-04-29T09:22:48.715Z,6.13
2023-04-29T09:25:15.968Z,8.40
2023-04-29T09:27:42.987Z,5.68
2023-04-29T09:30:11.072Z,7.53
2023-04-29T09:32:39.380Z,6.22
2023-04-29T09:35:21.564Z,5.95
2023-04-29T09:37:48.809Z,6.60
2023-04-29T09:40:32.472Z,6.60
2023-04-29T09:43:00.699Z,7.95
2023-04-29T09:45:35.514Z,6.28
2023-04-29T09:48:06.544Z,6.63
2023-04-29T09:50:33.969Z,7.00
2023-04-29T09:53:01.337Z,7.68
2023-04-29T09:55:28.278Z,8.30
2023-04-29T09:57:56.028Z,8.68
2023-04-29T10:00:23.170Z,7.82
2023-04-29T10:02:51.218Z,6.90
2023-04-29T10:05:19.602Z,8.38
2023-04-29T10:07:48.744Z,6.72
2023-04-29T10:10:17.244Z,9.45
2023-04-29T10:12:45.206Z,7.68
2023-04-29T10:15:27.693Z,6.28
2023-04-29T10:18:16.571Z,6.43
2023-04-29T10:20:47.562Z,6.30
2023-04-29T10:23:15.923Z,7.10
2023-04-29T10:25:45.144Z,7.57
2023-04-29T10:28:16.970Z,6.90
2023-04-29T10:30:45.296Z,5.75
2023-04-29T10:33:12.372Z,6.38
2023-04-29T10:35:40.288Z,7.30
2023-04-29T10:38:17.866Z,7.45
2023-04-29T10:40:47.896Z,5.63
2023-04-29T10:43:15.778Z,7.50
2023-04-29T10:45:42.763Z,6.13
2023-04-29T10:48:14.322Z,8.02
2023-04-29T10:51:02.201Z,5.82
2023-04-29T10:53:30.236Z,6.57
2023-04-29T10:56:03.493Z,5.88
2023-04-29T10:58:36.283Z,8.27
2023-04-29T11:01:04.112Z,7.33
2023-04-29T11:04:00.689Z,9.70
2023-04-29T11:06:36.593Z,9.13
2023-04-29T11:09:12.117Z,9.23
2023-04-29T11:11:49.099Z,6.22
2023-04-29T11:14:22.099Z,7.10
2023-04-29T11:16:52.624Z,9.05
2023-04-29T11:19:21.092Z,7.80
2023-04-29T11:21:48.103Z,6.55
2023-04-29T11:24:18.351Z,8.13
2023-04-29T11:26:46.578Z,7.30
2023-04-29T11:29:14.870Z,6.28
2023-04-29T11:31:42.222Z,8.40
2023-04-29T11:34:09.264Z,6.97
2023-04-29T11:36:36.773Z,12.02
2023-04-29T11:39:05.157Z,5.57
2023-04-29T11:41:32.402Z,5.43
2023-04-29T11:44:01.263Z,5.65
2023-04-29T11:46:31.839Z,8.07
2023-04-29T11:49:00.373Z,4.13
2023-04-29T11:51:28.180Z,4.57
2023-04-29T11:53:58.003Z,6.03
2023-04-29T11:56:26.001Z,9.65
2023-04-29T11:58:58.111Z,7.18
2023-04-29T12:01:26.599Z,4.57
2023-04-29T12:03:59.522Z,4.18
2023-04-29T12:06:30.761Z,5.68
2023-04-29T12:09:01.569Z,2.78
2023-04-29T12:11:29.076Z,7.63
2023-04-29T12:13:58.257Z,5.32
2023-04-29T12:16:25.944Z,4.50
2023-04-29T12:18:53.885Z,5.32
2023-04-29T12:21:22.211Z,5.35
2023-04-29T12:23:49.138Z,5.85
2023-04-29T12:26:17.465Z,5.65
2023-04-29T12:28:44.439Z,5.05
2023-04-29T12:31:14.207Z,7.22
2023-04-29T12:33:46.669Z,6.93
2023-04-29T12:36:21.030Z,6.50
2023-04-29T12:38:49.273Z,5.10
2023-04-29T12:41:17.484Z,5.68
2023-04-29T12:43:44.880Z,6.43
2023-04-29T12:46:14.995Z,4.07
2023-04-29T12:48:43.884Z,5.35
2023-04-29T12:51:11.794Z,4.88
2023-04-29T12:53:39.763Z,5.32
2023-04-29T12:56:07.358Z,4.75
2023-04-29T12:58:35.093Z,4.57
2023-04-29T13:01:02.572Z,4.47
2023-04-29T13:03:29.973Z,6.93
2023-04-29T13:05:57.402Z,5.90
2023-04-29T13:08:24.461Z,6.47
2023-04-29T13:10:51.755Z,6.25
2023-04-29T13:13:19.185Z,4.65
2023-04-29T13:15:46.805Z,5.70
2023-04-29T13:18:13.859Z,4.90
2023-04-29T13:20:42.265Z,4.05
2023-04-29T13:23:12.152Z,7.38
2023-04-29T13:25:39.181Z,5.65
2023-04-29T13:28:07.505Z,6.90
2023-04-29T13:30:34.738Z,4.15
2023-04-29T13:33:09.711Z,6.40
2023-04-29T13:35:41.829Z,2.88
2023-04-29T13:38:09.230Z,5.00
2023-04-29T13:40:40.723Z,3.97
2023-04-29T13:43:13.884Z,4.32
2023-04-29T13:45:45.265Z,7.05
2023-04-29T13:48:37.451Z,5.43
2023-04-29T13:56:59.720Z,6.80
2023-04-29T14:03:50.549Z,4.15
2023-04-29T14:06:17.565Z,5.35
2023-04-29T14:08:45.158Z,5.30
2023-04-29T14:11:12.296Z,9.00
2023-04-29T14:13:41.099Z,5.65
2023-04-29T14:16:09.601Z,3.08
2023-04-29T14:18:36.648Z,2.95
2023-04-29T14:21:12.940Z,4.68
2023-04-29T14:23:41.383Z,5.65
2023-04-29T14:26:26.510Z,3.97
2023-04-29T14:28:57.905Z,3.53
2023-04-29T14:31:35.639Z,5.47
2023-04-29T14:34:02.775Z,5.40
2023-04-29T14:36:29.795Z,4.38
2023-04-29T14:38:56.855Z,8.13
2023-04-29T14:41:23.982Z,4.97
2023-04-29T14:43:51.379Z,4.72
2023-04-29T14:46:18.380Z,5.78
2023-04-29T14:48:45.775Z,5.57
2023-04-29T14:51:12.831Z,5.10
2023-04-29T14:53:39.888Z,2.92
2023-04-29T14:56:08.137Z,7.20
2023-04-29T14:58:35.185Z,3.45
2023-04-29T15:01:02.330Z,4.00
2023-04-29T15:03:29.368Z,4.60
2023-04-29T15:05:56.494Z,5.03
2023-04-29T15:08:23.585Z,2.90
2023-04-29T15:10:50.905Z,5.22
2023-04-29T15:13:17.879Z,3.60
2023-04-29T15:15:44.946Z,3.08
2023-04-29T15:18:11.976Z,3.38
2023-04-29T15:20:39.075Z,5.55
2023-04-29T15:23:06.729Z,5.78
2023-04-29T15:25:34.860Z,5.00
2023-04-29T15:28:04.966Z,5.13
2023-04-29T15:30:32.567Z,2.22
2023-04-29T15:33:00.075Z,3.33
2023-04-29T15:35:27.852Z,4.43
2023-04-29T15:37:55.115Z,5.03
2023-04-29T15:40:22.316Z,4.10
2023-04-29T15:42:49.364Z,4.45
2023-04-29T15:45:17.142Z,3.95
2023-04-29T15:47:44.347Z,5.68
2023-04-29T15:50:11.721Z,5.35
2023-04-29T15:52:38.789Z,4.57
2023-04-29T15:55:07.280Z,4.70
2023-04-29T15:57:34.985Z,4.72
2023-04-29T16:00:02.281Z,5.60
2023-04-29T16:02:32.432Z,3.30
2023-04-29T16:04:59.657Z,5.63
2023-04-29T16:07:26.632Z,6.10
2023-04-29T16:09:55.128Z,5.72
2023-04-29T16:12:22.933Z,7.25
2023-04-29T16:14:50.374Z,7.60
2023-04-29T16:17:17.539Z,4.90
2023-04-29T16:19:44.875Z,5.15
2023-04-29T16:22:11.888Z,3.42
2023-04-29T16:24:40.510Z,7.35
2023-04-29T16:27:07.607Z,6.60
2023-04-29T16:29:34.587Z,7.03
2023-04-29T16:32:01.499Z,4.90
2023-04-29T16:34:28.477Z,9.18
2023-04-29T16:36:55.578Z,6.03
2023-04-29T16:39:22.600Z,5.45
2023-04-29T16:41:49.558Z,8.82
2023-04-29T16:44:16.573Z,5.57
2023-04-29T16:46:44.731Z,6.03
2023-04-29T16:49:11.896Z,8.43
2023-04-29T16:51:38.886Z,7.90
2023-04-29T16:54:05.918Z,5.50
2023-04-29T16:56:33.032Z,5.47
2023-04-29T16:59:00.320Z,5.35
2023-04-29T17:01:28.463Z,8.77
2023-04-29T17:03:55.731Z,7.80
2023-04-29T17:06:23.911Z,6.70
2023-04-29T17:08:51.901Z,6.25
2023-04-29T17:11:18.954Z,7.65
2023-04-29T17:13:46.545Z,6.13
2023-04-29T17:16:16.980Z,9.02
2023-04-29T17:18:43.960Z,7.00
2023-04-29T17:21:10.938Z,6.15
2023-04-29T17:23:37.980Z,7.85
2023-04-29T17:26:05.237Z,6.88
2023-04-29T17:28:32.177Z,6.13
2023-04-29T17:31:01.319Z,4.47
2023-04-29T17:33:35.125Z,11.65
2023-04-29T17:36:03.813Z,5.50
2023-04-29T17:38:34.300Z,6.45
2023-04-29T17:41:04.123Z,7.30
2023-04-29T17:43:35.512Z,6.57
2023-04-29T17:46:02.541Z,5.13
2023-04-29T17:48:29.540Z,5.50
2023-04-29T17:50:56.449Z,8.10
2023-04-29T17:53:23.699Z,6.55
2023-04-29T17:55:50.763Z,5.95
2023-04-29T17:58:17.847Z,7.15
2023-04-29T18:00:46.264Z,13.15
2023-04-29T18:03:13.393Z,7.88
2023-04-29T18:05:40.795Z,13.43
2023-04-29T18:08:07.667Z,6.65
2023-04-29T18:10:34.640Z,8.48
2023-04-29T18:13:03.378Z,9.18
2023-04-29T18:15:30.393Z,7.28
2023-04-29T18:17:57.647Z,8.13
2023-04-29T18:20:24.660Z,8.13
2023-04-29T18:22:52.125Z,10.07
2023-04-29T18:25:19.048Z,9.00
2023-04-29T18:27:46.158Z,8.82
2023-04-29T18:30:14.457Z,9.40
2023-04-29T18:32:41.509Z,9.80
2023-04-29T18:35:09.070Z,7.88
2023-04-29T18:37:35.965Z,8.93
2023-04-29T18:40:02.957Z,8.73
2023-04-29T18:42:30.895Z,8.45
2023-04-29T18:44:57.902Z,9.25
2023-04-29T18:47:24.932Z,8.77
2023-04-29T18:49:52.188Z,10.15
2023-04-29T18:52:19.154Z,6.47
2023-04-29T18:54:46.270Z,8.40
2023-04-29T18:57:13.425Z,8.43
2023-04-29T18:59:40.835Z,8.68
2023-04-29T19:02:08.215Z,9.55
2023-04-29T19:04:35.914Z,10.23
2023-04-29T19:07:03.999Z,12.60
2023-04-29T19:09:33.691Z,8.98
2023-04-29T19:12:03.734Z,13.77
2023-04-29T19:14:34.246Z,11.73
2023-04-29T19:17:01.556Z,14.57
2023-04-29T19:19:28.681Z,9.80
2023-04-29T19:21:57.571Z,10.25
2023-04-29T19:24:24.509Z,9.15
2023-04-29T19:26:51.698Z,9.00
2023-04-29T19:29:18.778Z,8.25
2023-04-29T19:31:46.299Z,9.13
2023-04-29T19:34:13.327Z,9.93
2023-04-29T19:36:40.461Z,11.63
2023-04-29T19:39:08.932Z,7.72
2023-04-29T19:41:36.251Z,8.05
2023-04-29T19:44:04.561Z,10.82
2023-04-29T19:46:31.916Z,9.18
2023-04-29T19:48:59.263Z,9.93
2023-04-29T19:51:26.184Z,12.65
2023-04-29T19:53:55.561Z,10.82
2023-04-29T19:56:23.485Z,14.00
2023-04-29T19:58:50.705Z,14.73
2023-04-29T20:01:18.152Z,13.88
2023-04-29T20:03:45.430Z,11.35
2023-04-29T20:06:12.639Z,11.85
2023-04-29T20:08:40.185Z,10.10
2023-04-29T20:11:07.318Z,12.98
2023-04-29T20:13:34.823Z,8.02
2023-04-29T20:16:01.990Z,10.18
2023-04-29T20:18:29.096Z,9.50
2023-04-29T20:20:56.523Z,10.45
2023-04-29T20:23:23.541Z,8.63
2023-04-29T20:25:50.987Z,10.32
2023-04-29T20:28:18.161Z,10.85
2023-04-29T20:30:45.220Z,9.00
2023-04-29T20:33:12.159Z,8.43
2023-04-29T20:35:39.145Z,11.15
2023-04-29T20:38:07.395Z,11.15
2023-04-29T20:40:34.749Z,9.77
2023-04-29T20:43:01.679Z,10.02
2023-04-29T20:45:28.737Z,11.25
2023-04-29T20:47:56.077Z,9.82
2023-04-29T20:50:23.188Z,9.65
2023-04-29T20:52:50.095Z,10.27
2023-04-29T20:55:17.294Z,11.52
2023-04-29T20:57:44.193Z,8.93
2023-04-29T21:00:12.155Z,12.60
2023-04-29T21:02:39.411Z,9.77
2023-04-29T21:05:06.720Z,9.82
2023-04-29T21:07:33.864Z,8.93
2023-04-29T21:10:01.009Z,8.40
2023-04-29T21:12:28.052Z,10.60
2023-04-29T21:14:55.256Z,8.00
2023-04-29T21:17:22.503Z,10.98
2023-04-29T21:19:49.649Z,11.05
2023-04-29T21:22:16.601Z,8.75
2023-04-29T21:24:43.584Z,8.90
2023-04-29T21:27:10.741Z,11.40
2023-04-29T21:29:41.017Z,9.55
2023-04-29T21:32:08.628Z,9.05
2023-04-29T21:34:36.215Z,8.90
2023-04-29T21:37:03.376Z,10.20
2023-04-29T21:39:32.179Z,9.73
2023-04-29T21:42:03.193Z,13.52
2023-04-29T21:44:30.773Z,11.52
2023-04-29T21:47:00.024Z,11.40
2023-04-29T21:49:28.260Z,14.25
2023-04-29T21:51:56.010Z,9.32
2023-04-29T21:54:23.126Z,9.02
2023-04-29T21:56:50.108Z,8.95
2023-04-29T21:59:17.597Z,9.77
2023-04-29T22:01:47.920Z,8.95
2023-04-29T22:04:19.332Z,11.90
2023-04-29T22:06:46.561Z,9.52
2023-04-29T22:09:13.646Z,9.40
2023-04-29T22:11:40.651Z,9.32
2023-04-29T22:14:07.680Z,11.63
2023-04-29T22:16:36.165Z,8.82
2023-04-29T22:19:04.639Z,10.23
2023-04-29T22:21:31.788Z,10.63
2023-04-29T22:23:59.297Z,10.57
2023-04-29T22:26:26.380Z,12.18
2023-04-29T22:28:53.531Z,10.20
2023-04-29T22:31:20.654Z,9.57
2023-04-29T22:33:47.842Z,8.75
2023-04-29T22:36:14.852Z,12.70
2023-04-29T22:38:41.772Z,10.43
2023-04-29T22:41:10.023Z,10.57
2023-04-29T22:43:37.015Z,10.82
2023-04-29T22:46:04.274Z,10.48
2023-04-29T22:48:31.369Z,12.65
2023-04-29T22:50:59.659Z,10.20
2023-04-29T22:53:27.140Z,14.05
2023-04-29T22:55:56.396Z,10.98
2023-04-29T22:58:25.526Z,9.80
2023-04-29T23:00:56.628Z,12.82
2023-04-29T23:03:24.859Z,9.90
2023-04-29T23:05:52.093Z,11.65
2023-04-29T23:08:19.164Z,12.55
2023-04-29T23:10:49.832Z,10.43
2023-04-29T23:13:17.728Z,12.38
2023-04-29T23:15:45.408Z,11.32
2023-04-29T23:18:12.846Z,12.52
2023-04-29T23:20:39.973Z,11.75
2023-04-29T23:23:06.913Z,11.10
2023-04-29T23:25:34.711Z,10.95
2023-04-29T23:28:01.746Z,11.88
2023-04-29T23:30:28.656Z,13.35
2023-04-29T23:32:55.833Z,11.85
2023-04-29T23:35:22.834Z,10.18
2023-04-29T23:37:49.801Z,10.60
2023-04-29T23:40:17.125Z,11.00
2023-04-29T23:42:44.148Z,12.77
2023-04-29T23:45:11.199Z,11.40
2023-04-29T23:47:38.181Z,13.30
2023-04-29T23:50:05.906Z,11.32
2023-04-29T23:52:32.891Z,10.95
2023-04-29T23:55:00.218Z,10.23
2023-04-29T23:57:27.166Z,12.00
2023-04-29T23:59:54.338Z,11.38
